Time;durP1;ratioP1;P1;durP2;ratioP2;P2;SDS_P1;SDS_P2;PMS_P1;PMS_P2;Temp;Humidity;BMP_temperature;BMP_pressure;BME280_temperature;BME280_humidity;BME280_pressure;Samples;Min_cycle;Max_cycle;Signal;HPM_P1;HPM_P2
2023/12/29 00:02:22;;;;;;;6.80;1.50;;;;;;;10.69;91.48;100675.78;5035751;28;20041;-72
2023/12/29 00:04:50;;;;;;;7.93;1.70;;;;;;;10.70;91.46;100680.97;5046613;28;20751;-71
2023/12/29 00:07:17;;;;;;;8.30;1.52;;;;;;;10.74;90.83;100678.25;5053420;28;20098;-71
2023/12/29 00:09:47;;;;;;;7.28;1.70;;;;;;;10.75;90.85;100672.91;5046510;28;20045;-70
2023/12/29 00:12:15;;;;;;;11.30;1.98;;;;;;;10.75;91.01;100667.66;5028620;28;20481;-70
2023/12/29 00:14:43;;;;;;;13.30;1.80;;;;;;;10.75;90.95;100665.00;5038920;28;20036;-71
2023/12/29 00:17:10;;;;;;;7.53;1.60;;;;;;;10.77;91.20;100662.34;5034371;28;20098;-70
2023/12/29 00:19:37;;;;;;;7.30;1.45;;;;;;;10.77;91.28;100668.47;5046595;28;20060;-70
2023/12/29 00:22:04;;;;;;;6.43;1.67;;;;;;;10.78;91.29;100664.06;5045768;28;20073;-71
2023/12/29 00:24:31;;;;;;;8.93;1.50;;;;;;;10.76;91.45;100658.81;5045573;28;20056;-70
2023/12/29 00:26:59;;;;;;;10.70;2.42;;;;;;;10.78;91.18;100670.19;5046792;28;20045;-70
2023/12/29 00:29:31;;;;;;;6.35;1.65;;;;;;;10.77;91.37;100663.19;5046562;28;20056;-71
2023/12/29 00:32:00;;;;;;;6.90;1.38;;;;;;;10.76;91.46;100658.81;5045850;28;20037;-71
2023/12/29 00:34:28;;;;;;;8.63;1.52;;;;;;;10.77;91.37;100655.28;5047243;28;20047;-70
2023/12/29 00:36:55;;;;;;;8.80;1.52;;;;;;;10.78;91.59;100656.16;5029422;28;20041;-70
2023/12/29 00:39:30;;;;;;;5.63;1.33;;;;;;;10.76;91.72;100658.81;5029449;28;20102;-70
2023/12/29 00:41:58;;;;;;;6.72;1.63;;;;;;;10.72;92.50;100655.44;5031248;28;20044;-70
2023/12/29 00:44:25;;;;;;;6.18;1.55;;;;;;;10.66;93.19;100652.13;5028711;28;20600;-71
2023/12/29 00:46:52;;;;;;;6.82;1.70;;;;;;;10.59;94.04;100643.56;5053416;28;20064;-71
2023/12/29 00:49:20;;;;;;;5.82;1.60;;;;;;;10.50;94.61;100636.84;5052974;28;20037;-71
2023/12/29 00:51:48;;;;;;;6.35;1.50;;;;;;;10.44;95.25;100637.03;5029203;28;20045;-71
2023/12/29 00:54:16;;;;;;;7.78;1.80;;;;;;;10.38;96.14;100630.19;5035010;28;20550;-71
2023/12/29 00:56:51;;;;;;;8.30;1.85;;;;;;;10.34;96.67;100638.22;5031781;28;20037;-72
2023/12/29 00:59:21;;;;;;;8.77;1.55;;;;;;;10.31;96.98;100625.16;5049069;28;20045;-71
2023/12/29 01:01:49;;;;;;;7.88;1.92;;;;;;;10.25;97.32;100619.16;5063178;28;20046;-71
2023/12/29 01:04:16;;;;;;;5.32;1.70;;;;;;;10.25;97.42;100624.44;5011788;28;20060;-71
2023/12/29 01:06:44;;;;;;;7.25;1.80;;;;;;;10.22;97.89;100629.81;5042704;28;20037;-71
2023/12/29 01:09:11;;;;;;;9.55;2.10;;;;;;;10.24;97.95;100627.13;5041846;28;20633;-71
2023/12/29 01:11:39;;;;;;;7.85;1.63;;;;;;;10.23;97.81;100630.66;5032147;28;20045;-71
2023/12/29 01:14:07;;;;;;;8.50;1.90;;;;;;;10.23;97.82;100639.41;5049887;28;20071;-70
2023/12/29 01:16:34;;;;;;;6.75;1.60;;;;;;;10.19;98.25;100627.28;5048516;28;20041;-70
2023/12/29 01:19:01;;;;;;;11.02;2.03;;;;;;;10.17;98.41;100629.09;5049169;28;20060;-70
2023/12/29 01:21:33;;;;;;;9.32;1.90;;;;;;;10.16;98.65;100624.72;5049858;28;20043;-71
2023/12/29 01:24:03;;;;;;;6.82;1.60;;;;;;;10.12;99.22;100620.50;5034236;28;20068;-71
2023/12/29 01:26:30;;;;;;;8.65;2.13;;;;;;;10.10;99.53;100617.03;5032577;28;20116;-71
2023/12/29 01:28:58;;;;;;;7.57;1.60;;;;;;;10.08;99.60;100611.78;5031993;28;20057;-71
2023/12/29 01:31:30;;;;;;;7.63;1.85;;;;;;;10.08;99.93;100616.22;5045242;28;20050;-70
2023/12/29 01:33:58;;;;;;;8.50;1.85;;;;;;;10.05;99.96;100629.47;5030268;28;20559;-71
2023/12/29 01:36:25;;;;;;;7.28;1.90;;;;;;;10.05;100.00;100632.09;5029534;28;20044;-71
2023/12/29 01:38:52;;;;;;;8.90;1.60;;;;;;;10.02;100.00;100629.59;5038601;28;20119;-71
2023/12/29 01:41:20;;;;;;;8.57;1.65;;;;;;;9.94;100.00;100629.81;5041261;28;20041;-70
2023/12/29 01:44:00;;;;;;;6.80;1.60;;;;;;;9.89;100.00;100624.69;5051395;28;20044;-71
2023/12/29 01:46:34;;;;;;;6.68;1.63;;;;;;;9.82;100.00;100617.88;5031912;28;20056;-71
2023/12/29 01:49:01;;;;;;;9.45;2.13;;;;;;;9.76;100.00;100623.34;5049672;28;20045;-71
2023/12/29 01:51:30;;;;;;;6.68;1.67;;;;;;;9.70;100.00;100623.53;5027623;28;20049;-71
2023/12/29 01:53:59;;;;;;;6.60;1.70;;;;;;;9.66;100.00;100628.03;5053926;28;20539;-71
2023/12/29 01:56:27;;;;;;;9.98;1.83;;;;;;;9.59;100.00;100598.41;5050554;28;20661;-71
2023/12/29 01:58:55;;;;;;;8.68;1.92;;;;;;;9.56;100.00;100622.16;5031534;28;20048;-71
2023/12/29 02:01:37;;;;;;;7.70;1.73;;;;;;;9.51;100.00;100620.56;5036429;28;20051;-71
2023/12/29 02:04:06;;;;;;;11.27;2.10;;;;;;;9.47;100.00;100610.13;5040306;28;20041;-70
2023/12/29 02:06:35;;;;;;;7.40;1.77;;;;;;;9.44;100.00;100610.25;5035222;28;20103;-71
2023/12/29 02:09:04;;;;;;;9.75;1.92;;;;;;;9.43;100.00;100613.78;5046485;28;20140;-70
2023/12/29 02:11:32;;;;;;;8.93;2.63;;;;;;;9.40;100.00;100603.34;5030556;28;20057;-70
2023/12/29 02:14:00;;;;;;;7.20;1.70;;;;;;;9.38;100.00;100602.50;5029306;28;20056;-70
2023/12/29 02:16:58;;;;;;;7.68;2.00;;;;;;;9.39;100.00;100603.38;5029042;28;20033;-70
2023/12/29 02:19:41;;;;;;;8.23;1.77;;;;;;;9.36;100.00;100606.09;5044307;28;20072;-71
2023/12/29 02:22:09;;;;;;;11.43;2.25;;;;;;;9.35;100.00;100607.00;5034876;28;20583;-70
2023/12/29 02:24:39;;;;;;;6.88;1.90;;;;;;;9.32;100.00;100600.06;5046775;28;20048;-70
2023/12/29 02:27:36;;;;;;;5.22;1.83;;;;;;;9.33;100.00;100613.16;5068604;28;20050;-70
2023/12/29 02:30:21;;;;;;;7.32;1.95;;;;;;;9.31;100.00;100616.75;5058791;28;20044;-70
2023/12/29 02:32:55;;;;;;;8.85;1.75;;;;;;;9.31;100.00;100606.25;5048693;28;20501;-70
2023/12/29 02:35:31;;;;;;;8.27;2.13;;;;;;;9.29;100.00;100606.28;5031625;28;20037;-70
2023/12/29 02:37:59;;;;;;;11.95;2.85;;;;;;;9.29;100.00;100613.31;5046510;28;20087;-70
2023/12/29 02:40:27;;;;;;;8.95;1.70;;;;;;;9.30;100.00;100612.41;5049263;28;20119;-70
2023/12/29 02:42:54;;;;;;;10.05;2.08;;;;;;;9.27;100.00;100599.31;5047053;28;20140;-70
2023/12/29 02:45:21;;;;;;;9.52;2.33;;;;;;;9.30;100.00;100605.38;5038091;28;20606;-70
2023/12/29 02:47:49;;;;;;;11.43;2.13;;;;;;;9.31;100.00;100599.19;5045569;28;20123;-70
2023/12/29 02:50:17;;;;;;;8.63;2.05;;;;;;;9.30;100.00;100610.66;5025309;28;20556;-70
2023/12/29 02:52:44;;;;;;;10.80;1.83;;;;;;;9.31;100.00;100611.50;5031455;28;20065;-71
2023/12/29 02:55:11;;;;;;;7.63;1.83;;;;;;;9.31;100.00;100611.50;5047381;28;20071;-70
2023/12/29 02:57:38;;;;;;;10.65;2.20;;;;;;;9.31;100.00;100601.81;5046925;28;20037;-70
2023/12/29 03:00:06;;;;;;;9.95;2.47;;;;;;;9.33;100.00;100609.69;5047574;28;20045;-70
2023/12/29 03:02:34;;;;;;;7.93;1.67;;;;;;;9.33;100.00;100600.03;5031759;28;20095;-70
2023/12/29 03:05:01;;;;;;;10.48;2.00;;;;;;;9.34;100.00;100614.06;5045130;28;20069;-70
2023/12/29 03:07:29;;;;;;;8.90;1.98;;;;;;;9.35;100.00;100607.88;5061370;28;20704;-70
2023/12/29 03:09:56;;;;;;;11.32;2.10;;;;;;;9.36;100.00;100603.47;5028509;28;20775;-70
2023/12/29 03:12:23;;;;;;;10.52;1.83;;;;;;;9.40;100.00;100607.75;5048338;28;20570;-70
2023/12/29 03:14:50;;;;;;;8.40;2.13;;;;;;;9.41;100.00;100607.69;5030396;28;20584;-70
2023/12/29 03:17:17;;;;;;;13.93;1.98;;;;;;;9.43;100.00;100597.13;5010881;28;20087;-71
2023/12/29 03:19:44;;;;;;;7.82;1.85;;;;;;;9.45;100.00;100595.31;5045373;28;20127;-70
2023/12/29 03:22:11;;;;;;;8.52;1.83;;;;;;;9.49;100.00;100583.78;5048152;28;20624;-70
2023/12/29 03:24:41;;;;;;;5.47;1.60;;;;;;;9.51;100.00;100589.00;5049615;28;20033;-70
2023/12/29 03:27:09;;;;;;;10.30;1.70;;;;;;;9.54;100.00;100586.28;5047338;28;20725;-70
2023/12/29 03:29:36;;;;;;;8.38;1.58;;;;;;;9.58;100.00;100599.31;5034384;28;20060;-70
2023/12/29 03:32:04;;;;;;;7.70;1.70;;;;;;;9.63;100.00;100588.63;5052549;28;20071;-70
2023/12/29 03:34:33;;;;;;;9.27;2.10;;;;;;;9.64;100.00;100593.00;5027952;28;20069;-70
2023/12/29 03:37:00;;;;;;;11.35;1.80;;;;;;;9.67;100.00;100592.03;5047222;28;20098;-71
2023/12/29 03:39:27;;;;;;;7.32;1.45;;;;;;;9.66;100.00;100587.69;5045658;28;20095;-71
2023/12/29 03:41:54;;;;;;;7.90;1.30;;;;;;;9.66;100.00;100591.19;5044695;28;20044;-71
2023/12/29 03:44:23;;;;;;;9.25;1.63;;;;;;;9.66;100.00;100575.41;5034180;28;20049;-71
2023/12/29 03:46:51;;;;;;;12.57;2.10;;;;;;;9.64;100.00;100579.84;5054436;28;20051;-70
2023/12/29 03:49:19;;;;;;;7.65;1.50;;;;;;;9.61;100.00;100577.28;5060111;28;20088;-71
2023/12/29 03:51:46;;;;;;;9.02;1.73;;;;;;;9.61;100.00;100570.25;5037081;28;20145;-71
2023/12/29 03:54:15;;;;;;;6.95;1.63;;;;;;;9.61;100.00;100570.25;5036540;28;20049;-70
2023/12/29 03:56:42;;;;;;;8.77;1.50;;;;;;;9.64;100.00;100578.06;5040795;28;20531;-70
2023/12/29 03:59:09;;;;;;;14.30;1.90;;;;;;;9.66;100.00;100577.16;5029999;28;20049;-70
2023/12/29 04:01:36;;;;;;;7.75;1.65;;;;;;;9.65;100.00;100584.19;5010355;28;20052;-70
2023/12/29 04:04:04;;;;;;;10.93;1.85;;;;;;;9.66;100.00;100572.75;5018678;28;20539;-71
2023/12/29 04:06:31;;;;;;;7.75;1.80;;;;;;;9.70;100.00;100579.63;5048083;28;20126;-70
2023/12/29 04:08:58;;;;;;;8.07;1.75;;;;;;;9.76;100.00;100583.84;5046285;28;20103;-70
2023/12/29 04:11:25;;;;;;;8.88;1.60;;;;;;;9.79;100.00;100597.78;5029294;28;20086;-70
2023/12/29 04:13:52;;;;;;;10.43;1.75;;;;;;;9.83;100.00;100595.06;5048948;28;20045;-70
2023/12/29 04:16:19;;;;;;;10.65;2.25;;;;;;;9.86;100.00;100579.19;5046975;28;20045;-70
2023/12/29 04:18:46;;;;;;;8.93;1.67;;;;;;;9.88;100.00;100569.44;5013753;28;20072;-70
2023/12/29 04:21:15;;;;;;;10.00;1.65;;;;;;;9.92;100.00;100574.56;5022876;28;20091;-70
2023/12/29 04:23:42;;;;;;;8.68;1.95;;;;;;;9.92;100.00;100565.81;5049785;28;20048;-70
2023/12/29 04:26:09;;;;;;;9.20;1.80;;;;;;;9.95;100.00;100568.34;5037192;28;20088;-70
2023/12/29 04:28:37;;;;;;;10.50;2.03;;;;;;;9.97;100.00;100568.28;5033366;28;20516;-70
2023/12/29 04:31:04;;;;;;;8.25;1.83;;;;;;;9.97;100.00;100563.03;5033043;28;20048;-70
2023/12/29 04:33:31;;;;;;;11.27;2.00;;;;;;;9.98;100.00;100567.38;5050299;28;20136;-70
2023/12/29 04:35:59;;;;;;;10.25;1.45;;;;;;;9.98;100.00;100577.91;5046369;28;20474;-71
2023/12/29 04:38:26;;;;;;;12.05;2.20;;;;;;;9.98;99.99;100562.97;5047711;28;20041;-71
2023/12/29 04:40:54;;;;;;;10.13;1.95;;;;;;;9.99;99.62;100571.75;5049413;28;20472;-71
2023/12/29 04:43:21;;;;;;;6.90;1.45;;;;;;;10.00;99.29;100579.59;5032761;28;20044;-71
2023/12/29 04:45:49;;;;;;;10.10;1.60;;;;;;;9.99;99.61;100574.38;5050324;28;20045;-71
2023/12/29 04:48:16;;;;;;;8.30;1.50;;;;;;;9.99;99.48;100569.09;5049436;28;20045;-71
2023/12/29 04:50:43;;;;;;;10.95;1.80;;;;;;;10.00;98.66;100570.84;5049875;28;20045;-71
2023/12/29 04:53:10;;;;;;;8.68;1.85;;;;;;;10.01;98.00;100573.41;5048259;28;20047;-70
2023/12/29 04:55:37;;;;;;;10.85;1.90;;;;;;;10.00;98.20;100573.47;5037783;28;20045;-71
2023/12/29 04:58:04;;;;;;;13.10;2.03;;;;;;;10.01;97.47;100570.78;5035306;28;20044;-70
2023/12/29 05:00:31;;;;;;;8.52;1.90;;;;;;;10.03;97.39;100575.97;5048924;28;20132;-70
2023/12/29 05:02:59;;;;;;;9.48;1.88;;;;;;;10.02;97.14;100584.81;5049538;28;20045;-70
2023/12/29 05:05:26;;;;;;;9.60;2.33;;;;;;;10.02;97.17;100583.03;5057845;28;20139;-70
2023/12/29 05:07:53;;;;;;;9.35;2.20;;;;;;;10.01;97.48;100575.19;5070113;28;20037;-70
2023/12/29 05:10:20;;;;;;;9.35;1.90;;;;;;;10.03;97.64;100583.88;5048769;28;20103;-70
2023/12/29 05:12:47;;;;;;;12.15;1.95;;;;;;;10.01;97.06;100589.22;5032147;28;20055;-71
2023/12/29 05:15:14;;;;;;;9.57;2.22;;;;;;;10.03;96.56;100591.78;5051894;28;20496;-70
2023/12/29 05:17:41;;;;;;;11.07;2.47;;;;;;;10.02;96.88;100582.19;5070494;28;20047;-70
2023/12/29 05:20:09;;;;;;;7.82;1.90;;;;;;;10.01;96.70;100583.94;5054234;28;20045;-70
2023/12/29 05:22:37;;;;;;;11.52;2.08;;;;;;;10.02;96.60;100583.03;5049886;28;20128;-70
2023/12/29 05:25:05;;;;;;;12.05;1.90;;;;;;;10.02;96.31;100584.81;5029522;28;20095;-71
2023/12/29 05:27:32;;;;;;;10.75;1.85;;;;;;;10.01;96.31;100596.25;5048717;28;20094;-71
2023/12/29 05:30:02;;;;;;;10.18;2.25;;;;;;;10.02;96.05;100590.94;5029228;28;20048;-70
2023/12/29 05:32:29;;;;;;;10.23;2.13;;;;;;;10.03;96.07;100592.66;5029659;28;20042;-70
2023/12/29 05:34:57;;;;;;;11.40;2.10;;;;;;;10.03;96.29;100595.28;5029633;28;20041;-70
2023/12/29 05:37:24;;;;;;;11.95;2.10;;;;;;;10.01;96.22;100591.84;5028413;28;20037;-70
2023/12/29 05:39:51;;;;;;;8.68;1.88;;;;;;;9.98;95.89;100584.03;5027620;28;20041;-70
2023/12/29 05:42:19;;;;;;;10.40;2.00;;;;;;;9.96;95.85;100601.69;5026323;28;20111;-70
2023/12/29 05:44:46;;;;;;;12.13;2.00;;;;;;;9.92;96.63;100597.41;5024736;28;20048;-70
2023/12/29 05:47:13;;;;;;;9.60;2.05;;;;;;;9.89;96.23;100603.63;5029019;28;20073;-70
2023/12/29 05:49:40;;;;;;;11.55;2.45;;;;;;;9.85;96.49;100603.78;5027910;28;20046;-71
2023/12/29 05:52:08;;;;;;;13.32;2.60;;;;;;;9.82;96.42;100599.44;5024907;28;20057;-70
2023/12/29 05:54:35;;;;;;;10.90;2.58;;;;;;;9.82;96.69;100599.44;5026845;28;20068;-70
2023/12/29 05:57:02;;;;;;;12.18;2.00;;;;;;;9.83;96.57;100603.81;5025751;28;20649;-70
2023/12/29 05:59:29;;;;;;;9.20;1.83;;;;;;;9.82;96.86;100603.88;5027917;28;20037;-70
2023/12/29 06:01:57;;;;;;;11.65;2.70;;;;;;;9.82;97.04;100599.44;5040249;28;20045;-70
2023/12/29 06:04:26;;;;;;;11.40;2.20;;;;;;;9.81;97.46;100596.88;5029816;28;20072;-70
2023/12/29 06:06:53;;;;;;;10.10;1.75;;;;;;;9.78;97.69;100601.31;5028285;28;20041;-70
2023/12/29 06:09:20;;;;;;;10.60;1.98;;;;;;;9.80;97.86;100601.28;5040687;28;20533;-70
2023/12/29 06:11:47;;;;;;;10.82;1.95;;;;;;;9.79;98.17;100599.56;5029542;28;20144;-71
2023/12/29 06:14:14;;;;;;;9.52;2.22;;;;;;;9.81;98.33;100597.75;5028666;28;20064;-70
2023/12/29 06:16:41;;;;;;;10.68;1.70;;;;;;;9.85;98.39;100603.78;5025352;28;20045;-70
2023/12/29 06:19:09;;;;;;;10.23;2.13;;;;;;;9.85;98.34;100599.34;5028584;28;20120;-71
2023/12/29 06:21:43;;;;;;;10.23;2.20;;;;;;;9.89;98.41;100589.59;5027194;28;20149;-71
2023/12/29 06:24:11;;;;;;;17.88;2.42;;;;;;;9.91;98.24;100599.19;5030635;28;20069;-70
2023/12/29 06:26:43;;;;;;;10.65;2.67;;;;;;;9.91;98.39;100600.94;5025837;28;20049;-70
2023/12/29 06:29:10;;;;;;;11.45;2.03;;;;;;;9.91;98.32;100588.66;5025756;28;20080;-71
2023/12/29 06:31:41;;;;;;;12.43;2.28;;;;;;;9.93;98.66;100599.13;5027720;28;20620;-70
2023/12/29 06:34:09;;;;;;;11.05;2.00;;;;;;;9.93;98.57;100599.97;5026986;28;20509;-71
2023/12/29 06:36:36;;;;;;;11.45;2.30;;;;;;;9.95;98.69;100599.94;5022153;28;20132;-70
2023/12/29 06:39:04;;;;;;;10.38;1.70;;;;;;;9.95;98.76;100597.31;5027337;28;20048;-71
2023/12/29 06:41:32;;;;;;;12.68;2.00;;;;;;;9.97;98.98;100607.78;5040394;28;20799;-70
2023/12/29 06:43:59;;;;;;;11.10;1.90;;;;;;;9.93;99.58;100597.34;5028249;28;20073;-71
2023/12/29 06:46:26;;;;;;;11.15;1.80;;;;;;;9.90;99.96;100593.94;5024383;28;20046;-71
2023/12/29 06:48:53;;;;;;;11.38;2.10;;;;;;;9.83;100.00;100593.28;5025491;28;20120;-71
2023/12/29 06:51:22;;;;;;;12.90;2.13;;;;;;;9.79;100.00;100581.97;5026315;28;20045;-71
2023/12/29 06:53:49;;;;;;;8.50;1.90;;;;;;;9.77;100.00;100588.22;5041338;28;20096;-71
2023/12/29 06:56:17;;;;;;;11.32;2.00;;;;;;;9.74;100.00;100586.53;5026929;28;20080;-70
2023/12/29 06:58:46;;;;;;;10.27;1.90;;;;;;;9.75;100.00;100587.38;5019818;28;20448;-71
2023/12/29 07:01:13;;;;;;;10.32;1.75;;;;;;;9.75;100.00;100582.13;5027183;28;20041;-71
2023/12/29 07:03:40;;;;;;;7.88;1.80;;;;;;;9.76;100.00;100573.31;5032288;28;20102;-71
2023/12/29 07:06:09;;;;;;;8.40;1.85;;;;;;;9.77;100.00;100580.31;5030774;28;20064;-71
2023/12/29 07:08:36;;;;;;;7.95;1.88;;;;;;;9.77;100.00;100562.72;5026599;28;20490;-71
2023/12/29 07:11:03;;;;;;;9.27;2.05;;;;;;;9.79;100.00;100567.97;5022650;28;20100;-73
2023/12/29 07:13:30;;;;;;;8.57;1.70;;;;;;;9.78;100.00;100582.03;5025130;28;20057;-71
2023/12/29 07:15:58;;;;;;;9.10;1.70;;;;;;;9.80;100.00;100585.50;5030582;28;20041;-70
2023/12/29 07:18:27;;;;;;;8.65;1.80;;;;;;;9.81;100.00;100589.84;5044205;28;20098;-70
2023/12/29 07:20:54;;;;;;;10.57;1.67;;;;;;;9.79;100.00;100584.63;5027085;28;20441;-70
2023/12/29 07:23:21;;;;;;;10.05;1.75;;;;;;;9.82;100.00;100590.69;5026602;28;20049;-71
2023/12/29 07:25:48;;;;;;;7.07;1.77;;;;;;;9.81;100.00;100584.59;5034936;28;20101;-71
2023/12/29 07:28:15;;;;;;;9.82;1.75;;;;;;;9.84;100.00;100573.94;5052435;28;20612;-70
2023/12/29 07:30:43;;;;;;;6.72;1.70;;;;;;;9.88;100.00;100565.03;5026946;28;20053;-71
2023/12/29 07:33:10;;;;;;;7.68;1.50;;;;;;;9.87;100.00;100568.59;5026975;28;20045;-71
2023/12/29 07:35:37;;;;;;;6.80;1.77;;;;;;;9.91;100.00;100574.63;5024694;28;20045;-71
2023/12/29 07:38:04;;;;;;;5.28;1.50;;;;;;;9.90;100.00;100555.34;5027341;28;20472;-71
2023/12/29 07:40:31;;;;;;;4.82;1.20;;;;;;;9.93;100.00;100578.06;5041113;28;20051;-70
2023/12/29 07:42:58;;;;;;;7.07;1.35;;;;;;;9.91;100.00;100580.75;5053476;28;20095;-70
2023/12/29 07:45:25;;;;;;;6.07;1.48;;;;;;;9.94;100.00;100579.78;5008732;28;20049;-70
2023/12/29 07:47:52;;;;;;;7.38;1.52;;;;;;;9.91;100.00;100585.13;5023774;28;20040;-70
2023/12/29 07:50:20;;;;;;;6.82;1.73;;;;;;;9.89;100.00;100561.50;5025980;28;20561;-70
2023/12/29 07:52:47;;;;;;;8.98;1.80;;;;;;;9.88;100.00;100572.06;5024155;28;20505;-70
2023/12/29 07:55:17;;;;;;;9.73;1.67;;;;;;;9.87;100.00;100565.09;5026432;28;20072;-70
2023/12/29 07:57:46;;;;;;;8.35;1.75;;;;;;;9.86;100.00;100566.84;5020104;28;20422;-71
2023/12/29 08:00:17;;;;;;;6.90;1.88;;;;;;;9.91;100.00;100558.81;5026989;28;20037;-71
2023/12/29 08:02:45;;;;;;;9.45;1.75;;;;;;;9.95;100.00;100566.56;5027521;28;20061;-71
2023/12/29 08:05:12;;;;;;;6.07;1.55;;;;;;;9.98;100.00;100565.59;5027250;28;20038;-71
2023/12/29 08:07:39;;;;;;;8.23;1.80;;;;;;;10.01;100.00;100580.47;5022970;28;20088;-70
2023/12/29 08:10:07;;;;;;;6.95;1.52;;;;;;;10.02;100.00;100577.75;5025688;28;20124;-70
2023/12/29 08:12:35;;;;;;;8.70;1.95;;;;;;;10.06;100.00;100583.78;5027071;28;20489;-70
2023/12/29 08:15:03;;;;;;;6.53;1.50;;;;;;;10.06;100.00;100576.78;5026190;28;20060;-70
2023/12/29 08:17:31;;;;;;;5.63;1.45;;;;;;;10.08;100.00;100577.56;5025861;28;20136;-70
2023/12/29 08:19:58;;;;;;;11.05;2.35;;;;;;;10.08;100.00;100584.59;5026139;28;20053;-70
2023/12/29 08:22:30;;;;;;;7.88;1.80;;;;;;;10.11;100.00;100587.16;5026441;28;20513;-70
2023/12/29 08:24:57;;;;;;;7.13;1.70;;;;;;;10.16;100.00;100587.00;5031827;28;20079;-71
2023/12/29 08:27:25;;;;;;;7.53;2.10;;;;;;;10.19;100.00;100571.06;5054180;28;20509;-70
2023/12/29 08:29:53;;;;;;;9.63;1.90;;;;;;;10.23;100.00;100575.34;5020666;28;20057;-70
2023/12/29 08:32:21;;;;;;;6.93;1.60;;;;;;;10.24;100.00;100579.69;5008320;28;20050;-70
2023/12/29 08:34:48;;;;;;;5.55;1.58;;;;;;;10.25;100.00;100587.53;5007805;28;20030;-70
2023/12/29 08:37:19;;;;;;;7.45;1.80;;;;;;;10.29;100.00;100579.56;5002940;28;20052;-70
2023/12/29 08:39:47;;;;;;;7.65;1.80;;;;;;;10.32;100.00;100585.56;5004563;28;20512;-70
2023/12/29 08:42:15;;;;;;;5.35;1.73;;;;;;;10.37;100.00;100586.34;5002933;28;20034;-70
2023/12/29 08:44:43;;;;;;;5.93;1.42;;;;;;;10.42;100.00;100586.19;5007990;28;20077;-69
2023/12/29 08:47:10;;;;;;;5.13;1.27;;;;;;;10.45;100.00;100579.94;5007493;28;20498;-70
2023/12/29 08:49:38;;;;;;;6.10;1.30;;;;;;;10.49;100.00;100582.41;5005464;28;20425;-70
2023/12/29 08:52:05;;;;;;;5.00;1.40;;;;;;;10.52;100.00;100584.06;5002824;28;20042;-70
2023/12/29 08:54:33;;;;;;;6.30;1.20;;;;;;;10.56;100.00;100589.19;5004962;28;20042;-70
2023/12/29 08:57:00;;;;;;;5.20;1.42;;;;;;;10.58;100.00;100591.78;5009289;28;20502;-71
2023/12/29 08:59:27;;;;;;;7.85;1.35;;;;;;;10.62;100.00;100595.19;5002235;28;20050;-70
2023/12/29 09:01:55;;;;;;;5.13;1.30;;;;;;;10.63;100.00;100597.75;5005748;28;20057;-70
2023/12/29 09:04:22;;;;;;;3.58;1.05;;;;;;;10.65;100.00;100592.41;5010769;28;20042;-70
2023/12/29 09:06:50;;;;;;;4.63;0.95;;;;;;;10.70;100.00;100593.13;5006588;28;20157;-70
2023/12/29 09:09:17;;;;;;;5.07;1.67;;;;;;;10.70;100.00;100601.03;5010459;28;20043;-69
2023/12/29 09:11:45;;;;;;;5.18;1.42;;;;;;;10.74;100.00;100605.28;5020960;28;20061;-70
2023/12/29 09:14:12;;;;;;;6.72;2.78;;;;;;;10.74;100.00;100599.16;5009845;28;20046;-70
2023/12/29 09:16:42;;;;;;;5.18;3.50;;;;;;;10.72;100.00;100594.78;5024858;28;20041;-69
2023/12/29 09:19:11;;;;;;;4.35;1.58;;;;;;;10.68;100.00;100614.25;5009796;28;20034;-70
2023/12/29 09:21:41;;;;;;;7.22;3.45;;;;;;;10.63;100.00;100608.28;5007633;28;20054;-70
2023/12/29 09:24:08;;;;;;;65.70;46.90;;;;;;;10.58;100.00;100610.25;5010194;28;20144;-70
2023/12/29 09:26:35;;;;;;;15.30;12.73;;;;;;;10.53;100.00;100593.69;5006651;28;20049;-70
2023/12/29 09:29:02;;;;;;;2.75;1.30;;;;;;;10.55;100.00;100611.19;5021193;28;20516;-70
2023/12/29 09:31:29;;;;;;;3.72;1.42;;;;;;;10.53;100.00;100609.50;5048301;28;20051;-70
2023/12/29 09:33:57;;;;;;;4.68;1.83;;;;;;;10.50;100.00;100612.25;5029689;28;20049;-70
2023/12/29 09:36:24;;;;;;;4.75;1.38;;;;;;;10.46;100.00;100619.41;5048048;28;20058;-70
2023/12/29 09:38:51;;;;;;;5.03;3.40;;;;;;;10.46;100.00;100611.50;5046061;28;20752;-70
2023/12/29 09:41:23;;;;;;;4.28;2.40;;;;;;;10.46;100.00;100635.22;5042633;28;20055;-70
2023/12/29 09:43:51;;;;;;;4.93;1.25;;;;;;;10.47;100.00;100641.38;5030325;28;20528;-70
2023/12/29 09:46:24;;;;;;;4.22;0.90;;;;;;;10.41;100.00;100631.88;5056410;28;20073;-70
2023/12/29 09:48:57;;;;;;;2.75;0.80;;;;;;;10.32;100.00;100637.44;5046619;28;20041;-71
2023/12/29 09:51:24;;;;;;;6.22;1.10;;;;;;;10.23;100.00;100628.88;5041040;28;20037;-71
2023/12/29 09:53:52;;;;;;;3.97;0.95;;;;;;;10.19;100.00;100647.47;5051739;28;20037;-70
2023/12/29 09:56:19;;;;;;;3.05;0.90;;;;;;;10.20;100.00;100650.06;5037569;28;20055;-70
2023/12/29 09:58:52;;;;;;;5.53;3.88;;;;;;;10.21;100.00;100636.00;5069844;28;20048;-70
2023/12/29 10:01:23;;;;;;;3.60;1.20;;;;;;;10.22;100.00;100644.75;5064529;28;20037;-70
2023/12/29 10:03:50;;;;;;;2.17;0.88;;;;;;;10.22;100.00;100636.84;5060060;28;21343;-70
2023/12/29 10:06:24;;;;;;;2.13;1.00;;;;;;;10.23;100.00;100630.66;5062120;28;20439;-70
2023/12/29 10:08:56;;;;;;;5.00;0.85;;;;;;;10.25;100.00;100621.78;5050405;28;20044;-70
2023/12/29 10:11:26;;;;;;;2.33;1.00;;;;;;;10.32;100.00;100621.63;5040601;28;20048;-70
2023/12/29 10:13:57;;;;;;;2.38;0.68;;;;;;;10.35;100.00;100617.09;5033684;28;20546;-70
2023/12/29 10:16:44;;;;;;;4.05;1.98;;;;;;;10.39;100.00;100629.28;5062200;28;20090;-70
2023/12/29 10:19:30;;;;;;;2.10;0.80;;;;;;;10.41;100.00;100629.25;5040842;28;20043;-70
2023/12/29 10:22:18;;;;;;;3.30;1.35;;;;;;;10.41;100.00;100638.00;5054598;28;20076;-70
2023/12/29 10:24:46;;;;;;;2.83;1.63;;;;;;;10.43;100.00;100635.31;5062601;28;20119;-70
2023/12/29 10:27:14;;;;;;;3.97;1.85;;;;;;;10.45;100.00;100645.81;5048171;28;20051;-70
2023/12/29 10:29:41;;;;;;;2.17;0.73;;;;;;;10.46;100.00;100629.09;5042337;28;20057;-70
2023/12/29 10:32:09;;;;;;;1.98;0.50;;;;;;;10.49;100.00;100643.03;5020688;28;20132;-70
2023/12/29 10:34:37;;;;;;;1.38;0.40;;;;;;;10.51;100.00;100637.69;5023263;28;20111;-70
2023/12/29 10:37:09;;;;;;;2.88;0.32;;;;;;;10.51;100.00;100635.94;5010283;28;20101;-70
2023/12/29 10:39:37;;;;;;;2.75;0.70;;;;;;;10.56;100.00;100636.63;5021718;28;20545;-70
2023/12/29 10:42:09;;;;;;;1.08;0.38;;;;;;;10.57;100.00;100640.16;5008290;28;20045;-71
2023/12/29 10:44:38;;;;;;;1.63;0.45;;;;;;;10.57;100.00;100648.06;5007442;28;20058;-70
2023/12/29 10:47:14;;;;;;;1.05;0.40;;;;;;;10.57;100.00;100661.22;5008915;28;20440;-70
2023/12/29 10:49:41;;;;;;;1.02;0.40;;;;;;;10.58;100.00;100652.41;5008578;28;20041;-70
2023/12/29 10:52:14;;;;;;;1.45;0.30;;;;;;;10.60;100.00;100653.19;5003274;28;20049;-70
2023/12/29 10:54:42;;;;;;;0.95;0.45;;;;;;;10.63;100.00;100660.16;5009979;28;20068;-70
2023/12/29 10:57:12;;;;;;;1.50;0.40;;;;;;;10.66;100.00;100658.28;5005310;28;20202;-70
2023/12/29 10:59:40;;;;;;;4.70;2.95;;;;;;;10.70;100.00;100651.13;5014577;28;20041;-70
2023/12/29 11:02:14;;;;;;;7.10;2.72;;;;;;;10.73;100.00;100656.31;5014632;28;20090;-70
2023/12/29 11:04:43;;;;;;;3.38;3.08;;;;;;;10.75;100.00;100650.97;5003783;28;20041;-70
2023/12/29 11:07:13;;;;;;;2.47;1.60;;;;;;;10.79;99.64;100634.13;5007986;28;20041;-70
2023/12/29 11:09:41;;;;;;;3.50;3.17;;;;;;;10.78;99.40;100641.19;5006417;28;20034;-70
2023/12/29 11:12:13;;;;;;;2.15;0.70;;;;;;;10.77;99.09;100630.69;5007996;28;20460;-70
2023/12/29 11:14:45;;;;;;;2.10;0.57;;;;;;;10.76;99.02;100627.19;5003626;28;20516;-70
2023/12/29 11:17:16;;;;;;;2.60;0.60;;;;;;;10.78;98.59;100629.78;5005255;28;20491;-71
2023/12/29 11:19:49;;;;;;;2.17;0.60;;;;;;;10.79;98.18;100636.75;5013644;28;20065;-70
2023/12/29 11:22:18;;;;;;;3.95;0.70;;;;;;;10.79;98.17;100642.03;5010186;28;20037;-70
2023/12/29 11:24:47;;;;;;;2.00;0.57;;;;;;;10.78;98.10;100638.53;5007099;28;20485;-70
2023/12/29 11:27:17;;;;;;;5.22;0.73;;;;;;;10.80;98.08;100638.47;5008221;28;21446;-70
2023/12/29 11:29:46;;;;;;;2.63;0.85;;;;;;;10.80;97.87;100631.44;5028374;28;20072;-70